Time;durP1;ratioP1;P1;durP2;ratioP2;P2;SDS_P1;SDS_P2;PMS_P1;PMS_P2;Temp;Humidity;BMP_temperature;BMP_pressure;BME280_temperature;BME280_humidity;BME280_pressure;Samples;Min_cycle;Max_cycle;Signal;HPM_P1;HPM_P2
2022/06/02 00:02:16;;;;;;;;;;;;;;;;;;5074215;28;28320;-91
2022/06/02 00:04:41;;;;;;;;;;;;;;;;;;5073988;28;28443;-90
2022/06/02 00:07:06;;;;;;;;;;;;;;;;;;5074177;28;28433;-91
2022/06/02 00:09:31;;;;;;;;;;;;;;;;;;5074622;28;28395;-90
2022/06/02 00:11:56;;;;;;;;;;;;;;;;;;5074820;28;28531;-90
2022/06/02 00:14:21;;;;;;;;;;;;;;;;;;5074660;28;28310;-90
2022/06/02 00:16:49;;;;;;;;;;;;;;;;;;5074396;28;28282;-91
2022/06/02 00:19:14;;;;;;;;;;;;;;;;;;5074645;28;28363;-90
2022/06/02 00:21:39;;;;;;;;;;;;;;;;;;5074187;28;28436;-90
2022/06/02 00:24:06;;;;;;;;;;;;;;;;;;5074470;28;28373;-90
2022/06/02 00:26:31;;;;;;;;;;;;;;;;;;5074810;28;27778;-89
2022/06/02 00:28:56;;;;;;;;;;;;;;;;;;5074456;28;28369;-90
2022/06/02 00:31:21;;;;;;;;;;;;;;;;;;5073823;28;28565;-89
2022/06/02 00:33:46;;;;;;;;;;;;;;;;;;5074431;28;28351;-90
2022/06/02 00:36:11;;;;;;;;;;;;;;;;;;5076894;28;28354;-92
2022/06/02 00:38:36;;;;;;;;;;;;;;;;;;5078066;28;28488;-91
2022/06/02 00:41:01;;;;;;;;;;;;;;;;;;5077642;28;28365;-91
2022/06/02 00:43:26;;;;;;;;;;;;;;;;;;5077552;28;28437;-91
2022/06/02 00:45:51;;;;;;;;;;;;;;;;;;5078002;28;28472;-90
2022/06/02 00:48:17;;;;;;;;;;;;;;;;;;5077932;28;28568;-90
2022/06/02 00:50:42;;;;;;;;;;;;;;;;;;5077250;28;28433;-90
2022/06/02 00:53:07;;;;;;;;;;;;;;;;;;5093347;28;28706;-90
2022/06/02 00:58:16;;;;;;;;;;;;;;;;;;5077589;28;28515;-89
2022/06/02 01:00:43;;;;;;;;;;;;;;;;;;5077218;28;28510;-89
2022/06/02 01:03:11;;;;;;;;;;;;;;;;;;5077205;28;28314;-90
2022/06/02 01:05:36;;;;;;;;;;;;;;;;;;5077210;28;28321;-90
2022/06/02 01:08:01;;;;;;;;;;;;;;;;;;5077552;28;28323;-89
2022/06/02 01:10:29;;;;;;;;;;;;;;;;;;5077151;28;28357;-90
2022/06/02 01:12:54;;;;;;;;;;;;;;;;;;5077216;28;28470;-90
2022/06/02 01:15:19;;;;;;;;;;;;;;;;;;5077255;28;28339;-88
2022/06/02 01:17:44;;;;;;;;;;;;;;;;;;5077319;28;28531;-89
2022/06/02 01:20:12;;;;;;;;;;;;;;;;;;5076775;28;28343;-89
2022/06/02 01:22:38;;;;;;;;;;;;;;;;;;5077033;28;28380;-88
2022/06/02 01:25:03;;;;;;;;;;;;;;;;;;5076942;28;28420;-89
2022/06/02 01:27:28;;;;;;;;;;;;;;;;;;5077035;28;28476;-89
2022/06/02 01:29:53;;;;;;;;;;;;;;;;;;5076968;28;28363;-88
2022/06/02 01:32:20;;;;;;;;;;;;;;;;;;5076645;28;28539;-88
2022/06/02 01:34:45;;;;;;;;;;;;;;;;;;5076777;28;28326;-89
2022/06/02 01:37:12;;;;;;;;;;;;;;;;;;5077229;28;28300;-88
2022/06/02 01:39:40;;;;;;;;;;;;;;;;;;5076303;28;30658;-88
2022/06/02 01:42:05;;;;;;;;;;;;;;;;;;5076835;28;28353;-89
2022/06/02 01:44:30;;;;;;;;;;;;;;;;;;5076857;28;28325;-88
2022/06/02 01:46:55;;;;;;;;;;;;;;;;;;5076197;28;28378;-88
2022/06/02 01:49:20;;;;;;;;;;;;;;;;;;5076870;28;28656;-89
2022/06/02 01:51:45;;;;;;;;;;;;;;;;;;5076529;28;28566;-88
2022/06/02 01:54:10;;;;;;;;;;;;;;;;;;5076540;28;28898;-89
2022/06/02 01:56:36;;;;;;;;;;;;;;;;;;5076722;28;28376;-88
2022/06/02 01:59:01;;;;;;;;;;;;;;;;;;5076623;28;28447;-88
2022/06/02 02:01:26;;;;;;;;;;;;;;;;;;5076251;28;28440;-89
2022/06/02 02:03:51;;;;;;;;;;;;;;;;;;5076514;28;28318;-88
2022/06/02 02:06:16;;;;;;;;;;;;;;;;;;5076550;28;28244;-87
2022/06/02 02:08:42;;;;;;;;;;;;;;;;;;5091806;28;30431;-87
2022/06/02 02:11:07;;;;;;;;;;;;;;;;;;5076516;28;27807;-87
2022/06/02 02:13:32;;;;;;;;;;;;;;;;;;5076271;28;28255;-87
2022/06/02 02:16:00;;;;;;;;;;;;;;;;;;5076470;28;28394;-88
2022/06/02 02:18:25;;;;;;;;;;;;;;;;;;5076134;28;28469;-88
2022/06/02 02:20:50;;;;;;;;;;;;;;;;;;5075908;28;28419;-88
2022/06/02 02:23:15;;;;;;;;;;;;;;;;;;5076233;28;28396;-88
2022/06/02 02:25:40;;;;;;;;;;;;;;;;;;5075859;28;28293;-87
2022/06/02 02:28:05;;;;;;;;;;;;;;;;;;5076020;28;28492;-87
2022/06/02 02:30:31;;;;;;;;;;;;;;;;;;5075882;28;28398;-88
2022/06/02 02:32:56;;;;;;;;;;;;;;;;;;5075888;28;28496;-88
2022/06/02 02:35:21;;;;;;;;;;;;;;;;;;5075904;28;28369;-88
2022/06/02 02:37:47;;;;;;;;;;;;;;;;;;5075585;28;29085;-88
2022/06/02 02:40:12;;;;;;;;;;;;;;;;;;5075846;28;28426;-88
2022/06/02 02:42:37;;;;;;;;;;;;;;;;;;5076179;28;28496;-87
2022/06/02 02:45:02;;;;;;;;;;;;;;;;;;5075802;28;28426;-88
2022/06/02 02:47:27;;;;;;;;;;;;;;;;;;5075914;28;28425;-87
2022/06/02 02:49:52;;;;;;;;;;;;;;;;;;5091317;28;28337;-87
2022/06/02 02:52:17;;;;;;;;;;;;;;;;;;5075395;28;28414;-86
2022/06/02 02:54:43;;;;;;;;;;;;;;;;;;5075859;28;28330;-87
2022/06/02 02:57:08;;;;;;;;;;;;;;;;;;5074807;28;28491;-87
2022/06/02 02:59:33;;;;;;;;;;;;;;;;;;5075098;28;28341;-87
2022/06/02 03:01:58;;;;;;;;;;;;;;;;;;5075490;28;28782;-87
2022/06/02 03:04:23;;;;;;;;;;;;;;;;;;5076112;28;28322;-87
2022/06/02 03:06:52;;;;;;;;;;;;;;;;;;5074948;28;30031;-87
2022/06/02 03:09:17;;;;;;;;;;;;;;;;;;5075585;28;28507;-86
2022/06/02 03:11:42;;;;;;;;;;;;;;;;;;5075600;28;28321;-87
2022/06/02 03:14:08;;;;;;;;;;;;;;;;;;5075526;28;28478;-87
2022/06/02 03:16:33;;;;;;;;;;;;;;;;;;5075315;28;29151;-86
2022/06/02 03:18:58;;;;;;;;;;;;;;;;;;5075401;28;28417;-86
2022/06/02 03:21:23;;;;;;;;;;;;;;;;;;5075174;28;28405;-86
2022/06/02 03:23:48;;;;;;;;;;;;;;;;;;5075311;28;28557;-86
2022/06/02 03:26:14;;;;;;;;;;;;;;;;;;5074963;28;29315;-86
2022/06/02 03:28:39;;;;;;;;;;;;;;;;;;5075370;28;28310;-86
2022/06/02 03:31:04;;;;;;;;;;;;;;;;;;5074763;28;27698;-86
2022/06/02 03:33:29;;;;;;;;;;;;;;;;;;5075332;28;27759;-87
2022/06/02 03:35:54;;;;;;;;;;;;;;;;;;5075217;28;28232;-87
2022/06/02 03:38:19;;;;;;;;;;;;;;;;;;5074955;28;28332;-86
2022/06/02 03:40:44;;;;;;;;;;;;;;;;;;5074993;28;28292;-86
2022/06/02 03:43:09;;;;;;;;;;;;;;;;;;5074990;28;28309;-87
2022/06/02 03:45:35;;;;;;;;;;;;;;;;;;5074837;28;29444;-87
2022/06/02 03:48:00;;;;;;;;;;;;;;;;;;5074998;28;28450;-87
2022/06/02 03:50:25;;;;;;;;;;;;;;;;;;5074864;28;28270;-88
2022/06/02 03:52:50;;;;;;;;;;;;;;;;;;5075225;28;28165;-87
2022/06/02 03:55:15;;;;;;;;;;;;;;;;;;5074727;28;28550;-88
2022/06/02 03:57:40;;;;;;;;;;;;;;;;;;5074836;28;28247;-87
2022/06/02 04:00:08;;;;;;;;;;;;;;;;;;5075108;28;28331;-87
2022/06/02 04:02:33;;;;;;;;;;;;;;;;;;5074601;28;28541;-87
2022/06/02 04:04:58;;;;;;;;;;;;;;;;;;5074952;28;28487;-87
2022/06/02 04:07:24;;;;;;;;;;;;;;;;;;5074497;28;28405;-87
2022/06/02 04:09:49;;;;;;;;;;;;;;;;;;5076586;28;28583;-87
2022/06/02 04:14:58;;;;;;;;;;;;;;;;;;5077946;28;28401;-87
2022/06/02 04:17:26;;;;;;;;;;;;;;;;;;5078125;28;28314;-88
2022/06/02 04:22:35;;;;;;;;;;;;;;;;;;5078198;28;28322;-88
2022/06/02 04:25:00;;;;;;;;;;;;;;;;;;5077818;28;29287;-88
2022/06/02 04:27:25;;;;;;;;;;;;;;;;;;5077943;28;28417;-88
2022/06/02 04:29:50;;;;;;;;;;;;;;;;;;5077995;28;28440;-88
2022/06/02 04:32:15;;;;;;;;;;;;;;;;;;5077893;28;28510;-88
2022/06/02 04:34:40;;;;;;;;;;;;;;;;;;5077853;28;28584;-88
2022/06/02 04:37:06;;;;;;;;;;;;;;;;;;5077596;28;28405;-87
2022/06/02 04:39:31;;;;;;;;;;;;;;;;;;5077897;28;28323;-87
2022/06/02 04:41:56;;;;;;;;;;;;;;;;;;5077931;28;28303;-88
2022/06/02 04:44:21;;;;;;;;;;;;;;;;;;5077372;28;28387;-87
2022/06/02 04:46:46;;;;;;;;;;;;;;;;;;5077654;28;28391;-87
2022/06/02 04:49:11;;;;;;;;;;;;;;;;;;5077679;28;28392;-87
2022/06/02 04:51:36;;;;;;;;;;;;;;;;;;5077643;28;28546;-87
2022/06/02 04:54:01;;;;;;;;;;;;;;;;;;5077485;28;28434;-88
2022/06/02 04:56:27;;;;;;;;;;;;;;;;;;5077575;28;28468;-88
2022/06/02 04:58:52;;;;;;;;;;;;;;;;;;5077577;28;28342;-88
2022/06/02 05:01:17;;;;;;;;;;;;;;;;;;5077324;28;28279;-88
2022/06/02 05:03:42;;;;;;;;;;;;;;;;;;5077243;28;29501;-87
2022/06/02 05:06:07;;;;;;;;;;;;;;;;;;5077091;28;28386;-88
2022/06/02 05:08:33;;;;;;;;;;;;;;;;;;5078298;28;28244;-94
2022/06/02 05:10:58;;;;;;;;;;;;;;;;;;5094065;28;27962;-89
2022/06/02 05:13:23;;;;;;;;;;;;;;;;;;5077038;28;28543;-91
2022/06/02 05:15:48;;;;;;;;;;;;;;;;;;5077692;28;28344;-91
2022/06/02 05:18:13;;;;;;;;;;;;;;;;;;5079266;28;28231;-94
2022/06/02 05:20:38;;;;;;;;;;;;;;;;;;5091929;28;28262;-92
2022/06/02 05:23:03;;;;;;;;;;;;;;;;;;5076860;28;28277;-91
2022/06/02 05:25:29;;;;;;;;;;;;;;;;;;5092570;28;28673;-90
2022/06/02 05:27:54;;;;;;;;;;;;;;;;;;5092876;28;28391;-92
2022/06/02 05:30:19;;;;;;;;;;;;;;;;;;5077081;28;28282;-91
2022/06/02 05:32:44;;;;;;;;;;;;;;;;;;5077306;28;28581;-92
2022/06/02 05:35:09;;;;;;;;;;;;;;;;;;5076987;28;27833;-88
2022/06/02 05:37:36;;;;;;;;;;;;;;;;;;5092693;28;28482;-93
2022/06/02 05:40:01;;;;;;;;;;;;;;;;;;5077112;28;27758;-91
2022/06/02 05:42:26;;;;;;;;;;;;;;;;;;5076702;28;28437;-93
2022/06/02 05:44:52;;;;;;;;;;;;;;;;;;5076922;28;28281;-92
2022/06/02 05:47:17;;;;;;;;;;;;;;;;;;5076946;28;28378;-93
2022/06/02 05:49:42;;;;;;;;;;;;;;;;;;5076960;28;27822;-91
2022/06/02 05:52:07;;;;;;;;;;;;;;;;;;5076992;28;28363;-93
2022/06/02 05:54:32;;;;;;;;;;;;;;;;;;5092531;28;28461;-92
2022/06/02 05:56:57;;;;;;;;;;;;;;;;;;5092929;28;28399;-92
2022/06/02 05:59:22;;;;;;;;;;;;;;;;;;5093067;28;28420;-93
2022/06/02 06:01:48;;;;;;;;;;;;;;;;;;5077184;28;28723;-93
2022/06/02 06:04:13;;;;;;;;;;;;;;;;;;5092995;28;28476;-93
2022/06/02 06:06:38;;;;;;;;;;;;;;;;;;5077114;28;28441;-93
2022/06/02 06:09:03;;;;;;;;;;;;;;;;;;5077154;28;28466;-93
2022/06/02 06:11:28;;;;;;;;;;;;;;;;;;5076854;28;29123;-93
2022/06/02 06:13:53;;;;;;;;;;;;;;;;;;5077234;28;28107;-94
2022/06/02 06:16:18;;;;;;;;;;;;;;;;;;5077132;28;28398;-91
2022/06/02 06:18:43;;;;;;;;;;;;;;;;;;5076350;28;28463;-91
2022/06/02 06:21:08;;;;;;;;;;;;;;;;;;5076120;28;28378;-90
2022/06/02 06:23:34;;;;;;;;;;;;;;;;;;5076136;28;28434;-90
2022/06/02 06:25:59;;;;;;;;;;;;;;;;;;5076230;28;28416;-90
2022/06/02 06:28:25;;;;;;;;;;;;;;;;;;5077039;28;28528;-93
2022/06/02 06:30:50;;;;;;;;;;;;;;;;;;5077593;28;28480;-95
2022/06/02 06:33:15;;;;;;;;;;;;;;;;;;5077979;28;28436;-95
2022/06/02 06:35:40;;;;;;;;;;;;;;;;;;5078538;28;28369;-93
2022/06/02 06:38:06;;;;;;;;;;;;;;;;;;5095295;28;28446;-95
2022/06/02 06:40:31;;;;;;;;;;;;;;;;;;5082881;28;28236;-94
2022/06/02 06:42:56;;;;;;;;;;;;;;;;;;5076941;28;28444;-94
2022/06/02 06:45:21;;;;;;;;;;;;;;;;;;5077267;28;28428;-93
2022/06/02 06:47:47;;;;;;;;;;;;;;;;;;5077511;28;28359;-95
2022/06/02 06:50:12;;;;;;;;;;;;;;;;;;5078038;28;28255;-94
2022/06/02 06:52:37;;;;;;;;;;;;;;;;;;5081519;28;28473;-95
2022/06/02 06:55:03;;;;;;;;;;;;;;;;;;5096157;28;27822;-94
2022/06/02 06:57:28;;;;;;;;;;;;;;;;;;5081326;28;27763;-96
2022/06/02 06:59:54;;;;;;;;;;;;;;;;;;5079450;28;28281;-95
2022/06/02 07:02:20;;;;;;;;;;;;;;;;;;5076638;28;28335;-91
2022/06/02 07:04:45;;;;;;;;;;;;;;;;;;5092287;28;28504;-91
2022/06/02 07:07:10;;;;;;;;;;;;;;;;;;5076662;28;28405;-88
2022/06/02 07:09:35;;;;;;;;;;;;;;;;;;5076944;28;28279;-91
2022/06/02 07:14:44;;;;;;;;;;;;;;;;;;5075497;28;28374;-88
2022/06/02 07:17:09;;;;;;;;;;;;;;;;;;5075735;28;28399;-87
2022/06/02 07:19:36;;;;;;;;;;;;;;;;;;5075437;28;28488;-90
2022/06/02 07:22:01;;;;;;;;;;;;;;;;;;5075385;28;28302;-90
2022/06/02 07:24:26;;;;;;;;;;;;;;;;;;5090884;28;28441;-89
2022/06/02 07:26:51;;;;;;;;;;;;;;;;;;5076822;28;28429;-96
2022/06/02 07:48:45;;;;;;;;;;;;;;;;;;5334296;22;29210;-91
2022/06/02 07:51:11;;;;;;;;;;;;;;;;;;5018840;28;28322;-93
2022/06/02 07:53:36;;;;;;;;;;;;;;;;;;5018832;28;28541;-91
2022/06/02 07:56:01;;;;;;;;;;;;;;;;;;5018416;28;28420;-92
2022/06/02 07:58:26;;;;;;;;;;;;;;;;;;5019052;28;28311;-91
2022/06/02 08:00:52;;;;;;;;;;;;;;;;;;5018511;28;28298;-93
2022/06/02 08:03:17;;;;;;;;;;;;;;;;;;5018545;28;28306;-94
2022/06/02 08:05:42;;;;;;;;;;;;;;;;;;5018715;28;28305;-92
2022/06/02 08:08:07;;;;;;;;;;;;;;;;;;5000647;28;28431;-93
2022/06/02 08:10:32;;;;;;;;;;;;;;;;;;5018393;28;28528;-92
2022/06/02 08:12:57;;;;;;;;;;;;;;;;;;5011964;28;28528;-92
2022/06/02 08:15:22;;;;;;;;;;;;;;;;;;5016084;28;28559;-91
2022/06/02 08:17:48;;;;;;;;;;;;;;;;;;5037905;28;28289;-91
2022/06/02 08:20:13;;;;;;;;;;;;;;;;;;5037932;28;29480;-93
2022/06/02 08:22:38;;;;;;;;;;;;;;;;;;5038134;28;28313;-91
2022/06/02 08:25:03;;;;;;;;;;;;;;;;;;5020069;28;28317;-92
2022/06/02 08:27:28;;;;;;;;;;;;;;;;;;5038361;28;28419;-93
2022/06/02 08:29:55;;;;;;;;;;;;;;;;;;5038101;28;29405;-92
2022/06/02 08:32:20;;;;;;;;;;;;;;;;;;5019881;28;28510;-92
2022/06/02 08:34:45;;;;;;;;;;;;;;;;;;5039002;28;27821;-94
2022/06/02 08:37:11;;;;;;;;;;;;;;;;;;5038216;28;28345;-92
2022/06/02 08:39:36;;;;;;;;;;;;;;;;;;5038254;28;29224;-94
2022/06/02 08:42:01;;;;;;;;;;;;;;;;;;5020446;28;29332;-93
2022/06/02 08:44:26;;;;;;;;;;;;;;;;;;5038636;28;28337;-95
2022/06/02 08:46:51;;;;;;;;;;;;;;;;;;5038604;28;28435;-94
2022/06/02 08:49:16;;;;;;;;;;;;;;;;;;5036682;28;29863;-95
2022/06/02 08:51:41;;;;;;;;;;;;;;;;;;5038269;28;28402;-93
2022/06/02 08:54:06;;;;;;;;;;;;;;;;;;5036619;28;28399;-93
2022/06/02 08:56:31;;;;;;;;;;;;;;;;;;5036416;28;28451;-93
2022/06/02 08:58:57;;;;;;;;;;;;;;;;;;5037820;28;29273;-94
2022/06/02 09:01:22;;;;;;;;;;;;;;;;;;5037823;28;28457;-95
2022/06/02 09:03:47;;;;;;;;;;;;;;;;;;5038168;28;28364;-93
2022/06/02 09:06:12;;;;;;;;;;;;;;;;;;5038010;28;28382;-95
2022/06/02 09:08:37;;;;;;;;;;;;;;;;;;5037936;28;28411;-95
2022/06/02 09:11:02;;;;;;;;;;;;;;;;;;5038200;28;28520;-95
2022/06/02 09:13:27;;;;;;;;;;;;;;;;;;5037130;28;28491;-94
2022/06/02 09:15:52;;;;;;;;;;;;;;;;;;5037113;28;27852;-96
2022/06/02 09:18:18;;;;;;;;;;;;;;;;;;5036779;28;29767;-96
2022/06/02 09:20:43;;;;;;;;;;;;;;;;;;5037176;28;28654;-95
2022/06/02 09:23:08;;;;;;;;;;;;;;;;;;5039113;28;28903;-96
2022/06/02 09:25:33;;;;;;;;;;;;;;;;;;5039268;28;28109;-96
2022/06/02 09:27:58;;;;;;;;;;;;;;;;;;5036377;28;30137;-96
2022/06/02 09:30:23;;;;;;;;;;;;;;;;;;5018914;28;29019;-96
2022/06/02 09:32:48;;;;;;;;;;;;;;;;;;5028245;28;28374;-96
2022/06/02 09:35:13;;;;;;;;;;;;;;;;;;5029903;28;28403;-96
2022/06/02 09:37:38;;;;;;;;;;;;;;;;;;5030788;28;29835;-96
2022/06/02 09:40:05;;;;;;;;;;;;;;;;;;5052193;28;28197;-96
2022/06/02 09:42:30;;;;;;;;;;;;;;;;;;5048386;28;27754;-96
2022/06/02 09:44:56;;;;;;;;;;;;;;;;;;5049203;28;28280;-96
2022/06/02 09:47:22;;;;;;;;;;;;;;;;;;5039029;28;30761;-96
2022/06/02 09:49:52;;;;;;;;;;;;;;;;;;5042430;28;27674;-96
2022/06/02 10:00:17;;;;;;;;;;;;;;;;;;5755679;22;29680;-96
2022/06/02 10:02:42;;;;;;;;;;;;;;;;;;5061080;28;27827;-96
2022/06/02 10:15:27;;;;;;;;;;;;;;;;;;5639537;22;29817;-96
2022/06/02 10:28:21;;;;;;;;;;;;;;;;;;4228629;25;29179;-91
2022/06/02 10:30:47;;;;;;;;;;;;;;;;;;5058498;28;28610;-92
2022/06/02 10:33:12;;;;;;;;;;;;;;;;;;5060660;28;28475;-96
2022/06/02 10:35:37;;;;;;;;;;;;;;;;;;5063782;28;28506;-94
2022/06/02 10:38:03;;;;;;;;;;;;;;;;;;5043976;28;30253;-96
2022/06/02 10:40:28;;;;;;;;;;;;;;;;;;5055114;28;28516;-91
2022/06/02 10:42:53;;;;;;;;;;;;;;;;;;5087541;28;28414;-90
2022/06/02 10:45:19;;;;;;;;;;;;;;;;;;5054160;28;28352;-92
2022/06/02 10:47:44;;;;;;;;;;;;;;;;;;5049136;28;30043;-96
2022/06/02 10:50:09;;;;;;;;;;;;;;;;;;5048079;28;29191;-90
2022/06/02 10:52:36;;;;;;;;;;;;;;;;;;5053346;28;27925;-95
2022/06/02 10:55:02;;;;;;;;;;;;;;;;;;5075889;28;28418;-95
2022/06/02 10:57:29;;;;;;;;;;;;;;;;;;5046993;28;30169;-96
2022/06/02 10:59:55;;;;;;;;;;;;;;;;;;5065077;28;28400;-96
2022/06/02 11:02:20;;;;;;;;;;;;;;;;;;5057523;28;28357;-95
2022/06/02 11:12:30;;;;;;;;;;;;;;;;;;5090028;22;29086;-86
2022/06/02 11:14:55;;;;;;;;;;;;;;;;;;5075055;28;28550;-86
2022/06/02 11:17:20;;;;;;;;;;;;;;;;;;5074073;28;28506;-86
2022/06/02 11:19:45;;;;;;;;;;;;;;;;;;5073877;28;28246;-86
2022/06/02 11:22:10;;;;;;;;;;;;;;;;;;5074101;28;28443;-86
2022/06/02 11:24:36;;;;;;;;;;;;;;;;;;5074409;28;29569;-87
2022/06/02 11:27:02;;;;;;;;;;;;;;;;;;5074544;28;29190;-87
2022/06/02 11:29:27;;;;;;;;;;;;;;;;;;5074775;28;28261;-87
2022/06/02 11:31:52;;;;;;;;;;;;;;;;;;5074717;28;28518;-87
2022/06/02 11:34:17;;;;;;;;;;;;;;;;;;5056691;28;28641;-87
2022/06/02 11:36:42;;;;;;;;;;;;;;;;;;5074675;28;29561;-87
2022/06/02 11:39:08;;;;;;;;;;;;;;;;;;5074353;28;28514;-87
2022/06/02 11:41:34;;;;;;;;;;;;;;;;;;5056571;28;28468;-87
2022/06/02 11:43:59;;;;;;;;;;;;;;;;;;5055406;28;28658;-88
2022/06/02 11:46:24;;;;;;;;;;;;;;;;;;5074596;28;29522;-87
2022/06/02 11:48:49;;;;;;;;;;;;;;;;;;5074486;28;28555;-87
2022/06/02 11:51:14;;;;;;;;;;;;;;;;;;5073119;28;28433;-87
2022/06/02 11:53:39;;;;;;;;;;;;;;;;;;5056430;28;28432;-87
2022/06/02 11:56:05;;;;;;;;;;;;;;;;;;5072193;28;28717;-87
2022/06/02 11:58:30;;;;;;;;;;;;;;;;;;5074383;28;28483;-87
2022/06/02 12:00:55;;;;;;;;;;;;;;;;;;5074171;28;28410;-86
2022/06/02 12:03:20;;;;;;;;;;;;;;;;;;5055904;28;28360;-86
2022/06/02 12:05:45;;;;;;;;;;;;;;;;;;5073747;28;28723;-88
2022/06/02 12:08:11;;;;;;;;;;;;;;;;;;5074053;28;28517;-86
2022/06/02 12:10:36;;;;;;;;;;;;;;;;;;5074150;28;28482;-87
2022/06/02 12:13:01;;;;;;;;;;;;;;;;;;5074442;28;28497;-86
2022/06/02 12:15:26;;;;;;;;;;;;;;;;;;5060213;28;29845;-87
2022/06/02 12:17:51;;;;;;;;;;;;;;;;;;5074044;28;28531;-87
2022/06/02 12:20:16;;;;;;;;;;;;;;;;;;5073663;28;28517;-86
2022/06/02 12:22:41;;;;;;;;;;;;;;;;;;5055121;28;28621;-87
2022/06/02 12:25:07;;;;;;;;;;;;;;;;;;5073881;28;29550;-89
2022/06/02 12:27:32;;;;;;;;;;;;;;;;;;5054507;28;29227;-87
2022/06/02 12:29:57;;;;;;;;;;;;;;;;;;5074111;28;28533;-87
2022/06/02 12:32:22;;;;;;;;;;;;;;;;;;5076867;28;28469;-87
2022/06/02 12:34:47;;;;;;;;;;;;;;;;;;5076438;28;28888;-87
2022/06/02 12:37:12;;;;;;;;;;;;;;;;;;5076536;28;28492;-86
2022/06/02 12:39:37;;;;;;;;;;;;;;;;;;5075936;28;28406;-86
2022/06/02 12:42:02;;;;;;;;;;;;;;;;;;5058354;28;28395;-86
2022/06/02 12:44:28;;;;;;;;;;;;;;;;;;5077095;28;28608;-87
2022/06/02 12:46:53;;;;;;;;;;;;;;;;;;5077293;28;28389;-86
2022/06/02 12:49:18;;;;;;;;;;;;;;;;;;5075303;28;28466;-87
2022/06/02 12:51:43;;;;;;;;;;;;;;;;;;5061630;28;28626;-86
2022/06/02 12:54:08;;;;;;;;;;;;;;;;;;5064715;28;29973;-85
2022/06/02 12:56:34;;;;;;;;;;;;;;;;;;5066539;28;28468;-86
2022/06/02 12:58:59;;;;;;;;;;;;;;;;;;5076927;28;28427;-86
2022/06/02 13:01:25;;;;;;;;;;;;;;;;;;5077230;28;28438;-86
2022/06/02 13:03:50;;;;;;;;;;;;;;;;;;5076680;28;28490;-86
2022/06/02 13:06:15;;;;;;;;;;;;;;;;;;5077018;28;28544;-86
2022/06/02 13:08:40;;;;;;;;;;;;;;;;;;5080970;28;28494;-86
2022/06/02 13:11:05;;;;;;;;;;;;;;;;;;5097130;28;28351;-86
2022/06/02 13:13:31;;;;;;;;;;;;;;;;;;5090577;28;29487;-86
2022/06/02 13:15:56;;;;;;;;;;;;;;;;;;5076618;28;28288;-86
2022/06/02 13:18:21;;;;;;;;;;;;;;;;;;5073449;28;28570;-85
2022/06/02 13:20:46;;;;;;;;;;;;;;;;;;5077191;28;27750;-86
2022/06/02 13:23:11;;;;;;;;;;;;;;;;;;5058927;28;28325;-87
2022/06/02 13:25:36;;;;;;;;;;;;;;;;;;5058747;28;28511;-86
2022/06/02 13:28:01;;;;;;;;;;;;;;;;;;5076226;28;28510;-88
2022/06/02 13:30:30;;;;;;;;;;;;;;;;;;5077334;28;28284;-87
2022/06/02 13:32:55;;;;;;;;;;;;;;;;;;5076721;28;28633;-86
2022/06/02 13:35:20;;;;;;;;;;;;;;;;;;5076980;28;28381;-86
2022/06/02 13:37:45;;;;;;;;;;;;;;;;;;5076926;28;27828;-86
2022/06/02 13:40:10;;;;;;;;;;;;;;;;;;5076872;28;28402;-87
2022/06/02 13:42:35;;;;;;;;;;;;;;;;;;5057760;28;28590;-87
2022/06/02 13:45:00;;;;;;;;;;;;;;;;;;5058607;28;28504;-86
2022/06/02 13:47:25;;;;;;;;;;;;;;;;;;5076754;28;28414;-88
2022/06/02 13:49:51;;;;;;;;;;;;;;;;;;5077101;28;28368;-86
2022/06/02 13:59:36;;;;;;;;;;;;;;;;;;5133631;27;28397;-87
2022/06/02 14:02:01;;;;;;;;;;;;;;;;;;5134455;27;28543;-89
2022/06/02 14:04:26;;;;;;;;;;;;;;;;;;5134488;27;28534;-86
2022/06/02 14:06:52;;;;;;;;;;;;;;;;;;5133988;27;28452;-86
2022/06/02 14:09:17;;;;;;;;;;;;;;;;;;5133517;27;28460;-87
2022/06/02 14:11:42;;;;;;;;;;;;;;;;;;5133214;27;28546;-86
2022/06/02 14:14:07;;;;;;;;;;;;;;;;;;5132992;27;29487;-84
2022/06/02 14:16:32;;;;;;;;;;;;;;;;;;5147111;27;28013;-88
2022/06/02 14:18:57;;;;;;;;;;;;;;;;;;5131542;27;28366;-88
2022/06/02 14:21:22;;;;;;;;;;;;;;;;;;5134340;27;28401;-88
2022/06/02 14:23:51;;;;;;;;;;;;;;;;;;5131589;27;30077;-87
2022/06/02 14:26:20;;;;;;;;;;;;;;;;;;5138067;27;28279;-88
2022/06/02 14:28:45;;;;;;;;;;;;;;;;;;5142263;27;28288;-87
2022/06/02 14:31:11;;;;;;;;;;;;;;;;;;5153965;27;28371;-86
2022/06/02 14:33:36;;;;;;;;;;;;;;;;;;5153654;27;28414;-88
2022/06/02 14:36:01;;;;;;;;;;;;;;;;;;5153937;27;28322;-86
2022/06/02 14:38:26;;;;;;;;;;;;;;;;;;5153804;27;28258;-87
2022/06/02 14:40:54;;;;;;;;;;;;;;;;;;5153764;27;28573;-87
2022/06/02 14:43:19;;;;;;;;;;;;;;;;;;5153457;27;28415;-86
2022/06/02 14:45:44;;;;;;;;;;;;;;;;;;5153613;27;28263;-86
2022/06/02 14:48:09;;;;;;;;;;;;;;;;;;5153633;27;28251;-86
2022/06/02 14:50:34;;;;;;;;;;;;;;;;;;5153770;27;28448;-86
2022/06/02 14:53:00;;;;;;;;;;;;;;;;;;5153149;27;28790;-86
2022/06/02 14:55:25;;;;;;;;;;;;;;;;;;5153427;27;28319;-85
2022/06/02 14:57:50;;;;;;;;;;;;;;;;;;5153304;27;28338;-85
2022/06/02 15:00:15;;;;;;;;;;;;;;;;;;5153513;27;28634;-86
2022/06/02 15:02:40;;;;;;;;;;;;;;;;;;5153190;27;29578;-86
2022/06/02 15:05:05;;;;;;;;;;;;;;;;;;5141684;27;28367;-87
2022/06/02 15:07:30;;;;;;;;;;;;;;;;;;5139298;27;28471;-87
2022/06/02 15:09:55;;;;;;;;;;;;;;;;;;5139661;27;28361;-87
2022/06/02 15:12:21;;;;;;;;;;;;;;;;;;5138978;27;28251;-87
2022/06/02 15:14:46;;;;;;;;;;;;;;;;;;5139348;27;28247;-87
2022/06/02 15:17:11;;;;;;;;;;;;;;;;;;5139438;27;28527;-87
2022/06/02 15:19:36;;;;;;;;;;;;;;;;;;5139213;27;28338;-86
2022/06/02 15:22:04;;;;;;;;;;;;;;;;;;5138960;27;28419;-87
2022/06/02 15:24:29;;;;;;;;;;;;;;;;;;5139002;27;28435;-86
2022/06/02 15:26:54;;;;;;;;;;;;;;;;;;5137733;27;28364;-87
2022/06/02 15:29:19;;;;;;;;;;;;;;;;;;5139346;27;28345;-87
2022/06/02 15:31:47;;;;;;;;;;;;;;;;;;5137518;27;33655;-86
2022/06/02 15:34:12;;;;;;;;;;;;;;;;;;5137515;27;28443;-87
2022/06/02 15:36:37;;;;;;;;;;;;;;;;;;5138736;27;28422;-87
2022/06/02 15:39:02;;;;;;;;;;;;;;;;;;5139072;27;28565;-86
2022/06/02 15:41:27;;;;;;;;;;;;;;;;;;5138828;27;29349;-87
2022/06/02 15:43:52;;;;;;;;;;;;;;;;;;5138679;27;27852;-87
2022/06/02 15:46:17;;;;;;;;;;;;;;;;;;5137641;27;28463;-86
2022/06/02 15:48:42;;;;;;;;;;;;;;;;;;5138655;27;28408;-86
2022/06/02 15:51:08;;;;;;;;;;;;;;;;;;5138688;27;28330;-87
2022/06/02 15:53:34;;;;;;;;;;;;;;;;;;5138461;27;28421;-86
2022/06/02 15:55:59;;;;;;;;;;;;;;;;;;5138386;27;28385;-86
2022/06/02 15:58:24;;;;;;;;;;;;;;;;;;5138819;27;28435;-86
2022/06/02 16:00:49;;;;;;;;;;;;;;;;;;5138539;27;28520;-87
2022/06/02 16:03:14;;;;;;;;;;;;;;;;;;5138255;27;28422;-86
2022/06/02 16:05:43;;;;;;;;;;;;;;;;;;5138661;27;28263;-86
2022/06/02 16:08:08;;;;;;;;;;;;;;;;;;5138533;27;28368;-87
2022/06/02 16:13:16;;;;;;;;;;;;;;;;;;5138040;27;28532;-86
2022/06/02 16:15:41;;;;;;;;;;;;;;;;;;5137337;27;28468;-86
2022/06/02 16:18:09;;;;;;;;;;;;;;;;;;5138494;27;28245;-86
2022/06/02 16:20:34;;;;;;;;;;;;;;;;;;5138014;27;28554;-86
2022/06/02 16:22:59;;;;;;;;;;;;;;;;;;5138098;27;28399;-87
2022/06/02 16:25:24;;;;;;;;;;;;;;;;;;5138286;27;28309;-87
2022/06/02 16:27:52;;;;;;;;;;;;;;;;;;5138047;27;28573;-87
2022/06/02 16:30:20;;;;;;;;;;;;;;;;;;5138093;27;29642;-87
2022/06/02 16:32:45;;;;;;;;;;;;;;;;;;5138013;27;28304;-87
2022/06/02 16:35:10;;;;;;;;;;;;;;;;;;5137895;27;28376;-87
2022/06/02 16:37:35;;;;;;;;;;;;;;;;;;5138154;27;28429;-87
2022/06/02 16:40:00;;;;;;;;;;;;;;;;;;5137909;27;29445;-87
2022/06/02 16:42:25;;;;;;;;;;;;;;;;;;5136714;27;28410;-87
2022/06/02 16:44:50;;;;;;;;;;;;;;;;;;5137746;27;28297;-87
2022/06/02 16:47:16;;;;;;;;;;;;;;;;;;5137971;27;28523;-87
2022/06/02 16:49:43;;;;;;;;;;;;;;;;;;5137708;27;29412;-86
2022/06/02 16:52:08;;;;;;;;;;;;;;;;;;5136044;27;28541;-86
2022/06/02 16:54:33;;;;;;;;;;;;;;;;;;5137980;27;28423;-87
2022/06/02 16:56:58;;;;;;;;;;;;;;;;;;5137530;27;28582;-86
2022/06/02 16:59:24;;;;;;;;;;;;;;;;;;5137466;27;29397;-87
2022/06/02 17:01:49;;;;;;;;;;;;;;;;;;5137645;27;27988;-86
2022/06/02 17:04:14;;;;;;;;;;;;;;;;;;5137507;27;28235;-87
2022/06/02 17:06:39;;;;;;;;;;;;;;;;;;5137748;27;28365;-87
2022/06/02 17:09:04;;;;;;;;;;;;;;;;;;5137249;27;28412;-86
2022/06/02 17:11:29;;;;;;;;;;;;;;;;;;5137351;27;28313;-86
2022/06/02 17:13:54;;;;;;;;;;;;;;;;;;5137548;27;28348;-86
2022/06/02 17:16:19;;;;;;;;;;;;;;;;;;5137589;27;28383;-86
2022/06/02 17:18:45;;;;;;;;;;;;;;;;;;5137424;27;28425;-86
2022/06/02 17:21:12;;;;;;;;;;;;;;;;;;5137013;27;28333;-86
2022/06/02 17:23:37;;;;;;;;;;;;;;;;;;5137370;27;28405;-86
2022/06/02 17:26:03;;;;;;;;;;;;;;;;;;5137426;27;28392;-86
2022/06/02 17:28:28;;;;;;;;;;;;;;;;;;5136622;27;29225;-86
2022/06/02 17:30:54;;;;;;;;;;;;;;;;;;5137158;27;28446;-87
2022/06/02 17:33:19;;;;;;;;;;;;;;;;;;5136809;27;28472;-86
2022/06/02 17:35:47;;;;;;;;;;;;;;;;;;5137146;27;28280;-86
2022/06/02 17:38:12;;;;;;;;;;;;;;;;;;5117451;27;28712;-86
2022/06/02 17:40:37;;;;;;;;;;;;;;;;;;5114979;27;28555;-87
2022/06/02 17:43:03;;;;;;;;;;;;;;;;;;5116421;27;28320;-85
2022/06/02 17:45:28;;;;;;;;;;;;;;;;;;5116311;27;28447;-85
2022/06/02 17:47:53;;;;;;;;;;;;;;;;;;5114694;27;30958;-85
2022/06/02 17:50:18;;;;;;;;;;;;;;;;;;5116065;27;28399;-85